Terminal Aerodrome Forecast
Issued by NWS Spokane, WA

Home | Current Version | Previous Version | Text Only | Print | Product List | Glossary On
Versions: 1 2 3 4 5 6 7 8 9 10 11 12 13 14 15 16 17 18 19 20 21 22 23 24 25 26 27 28 29 30 31 32 33 34
000
FTUS46 KOTX 230528
TAFLWS
TAF
KLWS 230528Z 2306/2406 12004KT P6SM -SHRA VCTS BKN080CB BKN120
     FM230700 12006KT P6SM -TSRA BKN060CB BKN100
     FM231200 06004KT P6SM VCSH SCT080 BKN100
     FM231400 02005KT P6SM SCT080
     FM232000 32012KT P6SM -TSRA SCT070CB BKN100
     FM232300 29018G28KT P6SM -TSRA SCT050 BKN070CB BKN100=

USA.gov is the U.S. government's official web portal to all federal, state and local government web resources and services.